createdAt,value
2019-02-06T00:03:26.506Z,15.10
2019-02-06T00:08:31.825Z,13.83
2019-02-06T00:13:37.277Z,17.57
2019-02-06T00:18:42.630Z,15.00
2019-02-06T00:23:48.130Z,15.43
2019-02-06T00:28:53.724Z,14.30
2019-02-06T00:33:59.111Z,14.33
2019-02-06T00:39:06.797Z,15.13
2019-02-06T00:44:12.153Z,16.30
2019-02-06T00:49:17.443Z,13.50
2019-02-06T00:54:22.887Z,14.00
2019-02-06T00:59:28.252Z,15.00
2019-02-06T01:04:33.605Z,14.77
2019-02-06T01:09:38.968Z,12.20
2019-02-06T01:14:44.401Z,14.40
2019-02-06T01:19:49.759Z,14.13
2019-02-06T01:24:55.115Z,14.83
2019-02-06T01:30:00.652Z,13.80
2019-02-06T01:35:06.503Z,12.97
2019-02-06T01:40:12.921Z,11.40
2019-02-06T01:45:19.266Z,12.87
2019-02-06T01:50:24.600Z,12.80
2019-02-06T01:55:29.940Z,13.70
2019-02-06T02:00:35.344Z,14.17
2019-02-06T02:05:40.682Z,13.50
2019-02-06T02:10:46.085Z,14.60
2019-02-06T02:15:51.492Z,16.03
2019-02-06T02:20:56.805Z,13.00
2019-02-06T02:26:02.147Z,12.37
2019-02-06T02:31:07.575Z,14.20
2019-02-06T02:36:15.878Z,13.27
2019-02-06T02:41:19.944Z,12.77
2019-02-06T02:46:25.332Z,12.97
2019-02-06T02:51:30.904Z,13.57
2019-02-06T02:56:36.261Z,13.07
2019-02-06T03:02:03.282Z,13.90
2019-02-06T03:07:08.708Z,15.20
2019-02-06T03:12:14.395Z,16.43
2019-02-06T03:17:19.721Z,15.67
2019-02-06T03:22:25.026Z,15.30
2019-02-06T03:27:30.365Z,13.87
2019-02-06T03:32:35.745Z,14.73
2019-02-06T03:37:41.144Z,14.00
2019-02-06T03:42:46.631Z,12.13
2019-02-06T03:47:52.303Z,14.97
2019-02-06T03:52:57.619Z,15.53
2019-02-06T03:58:02.906Z,21.83
2019-02-06T04:03:08.237Z,15.67
2019-02-06T04:08:13.661Z,16.33
2019-02-06T04:13:19.018Z,17.43
2019-02-06T04:18:24.358Z,15.93
2019-02-06T04:23:29.678Z,19.57
2019-02-06T04:28:35.063Z,17.10
2019-02-06T04:33:40.350Z,15.57
2019-02-06T04:38:45.782Z,16.30
2019-02-06T04:43:51.125Z,15.83
2019-02-06T04:48:56.421Z,16.87
2019-02-06T04:54:01.774Z,16.03
2019-02-06T04:59:07.100Z,16.50
2019-02-06T05:04:12.558Z,16.77
2019-02-06T05:09:17.905Z,20.37
2019-02-06T05:14:23.227Z,16.43
2019-02-06T05:19:28.503Z,16.90
2019-02-06T05:24:34.188Z,17.23
2019-02-06T05:29:39.502Z,15.87
2019-02-06T05:34:44.954Z,20.30
2019-02-06T05:39:50.352Z,16.27
2019-02-06T05:44:55.823Z,16.87
2019-02-06T05:50:01.400Z,19.30
2019-02-06T05:55:07.181Z,17.33
2019-02-06T06:00:20.822Z,16.70
2019-02-06T06:05:26.160Z,17.20
2019-02-06T06:10:31.449Z,19.23
2019-02-06T06:15:36.809Z,16.17
2019-02-06T06:20:42.183Z,19.60
2019-02-06T06:25:47.755Z,18.50
2019-02-06T06:30:53.104Z,18.30
2019-02-06T06:35:58.477Z,20.63
2019-02-06T06:41:03.827Z,23.33
2019-02-06T06:46:09.219Z,19.13
2019-02-06T06:51:14.542Z,20.00
2019-02-06T06:56:19.827Z,18.50
2019-02-06T07:01:25.231Z,22.13
2019-02-06T07:06:30.516Z,16.33
2019-02-06T07:11:35.888Z,16.60
2019-02-06T07:16:41.238Z,20.13
2019-02-06T07:21:46.527Z,15.50
2019-02-06T07:26:51.904Z,19.17
2019-02-06T07:31:57.207Z,17.53
2019-02-06T07:37:02.602Z,17.47
2019-02-06T07:42:07.914Z,14.93
2019-02-06T07:47:13.319Z,15.07
2019-02-06T07:52:18.893Z,17.57
2019-02-06T07:57:24.281Z,15.93
2019-02-06T08:02:29.790Z,17.20
2019-02-06T08:07:35.291Z,18.27
2019-02-06T08:12:40.618Z,15.90
2019-02-06T08:17:45.994Z,13.20
2019-02-06T08:22:51.427Z,16.27
2019-02-06T08:27:56.951Z,15.60
2019-02-06T08:33:02.259Z,18.93
2019-02-06T08:38:08.054Z,18.03
2019-02-06T08:43:13.699Z,15.67
2019-02-06T08:48:19.001Z,14.83
2019-02-06T08:53:24.374Z,16.43
2019-02-06T08:58:29.680Z,16.37
2019-02-06T09:03:35.317Z,16.37
2019-02-06T09:08:40.659Z,17.60
2019-02-06T09:13:45.994Z,14.57
2019-02-06T09:18:51.357Z,16.47
2019-02-06T09:23:56.692Z,13.57
2019-02-06T09:29:02.075Z,17.37
2019-02-06T09:34:09.626Z,15.03
2019-02-06T09:39:14.608Z,17.03
2019-02-06T09:44:19.983Z,17.10
2019-02-06T09:49:25.329Z,17.77
2019-02-06T09:54:30.692Z,16.27
2019-02-06T09:59:35.993Z,14.33
2019-02-06T10:04:41.485Z,18.43
2019-02-06T10:09:46.875Z,15.73
2019-02-06T10:14:52.578Z,15.87
2019-02-06T10:19:57.915Z,14.37
2019-02-06T10:25:03.337Z,14.33
2019-02-06T10:30:20.165Z,13.97
2019-02-06T10:35:25.491Z,16.80
2019-02-06T10:40:31.190Z,15.93
2019-02-06T10:45:36.485Z,14.80
2019-02-06T10:50:48.540Z,18.60
2019-02-06T10:55:53.839Z,13.20
2019-02-06T11:01:01.931Z,15.57
2019-02-06T11:06:07.315Z,14.23
2019-02-06T11:11:12.653Z,16.63
2019-02-06T11:16:18.065Z,18.67
2019-02-06T11:21:23.403Z,16.80
2019-02-06T11:26:28.766Z,14.73
2019-02-06T11:31:35.941Z,13.67
2019-02-06T11:36:41.345Z,14.57
2019-02-06T11:41:46.658Z,17.13
2019-02-06T11:46:52.067Z,17.97
2019-02-06T11:51:57.483Z,12.53
2019-02-06T11:57:02.981Z,17.93
2019-02-06T12:02:08.356Z,13.97
2019-02-06T12:07:13.706Z,13.40
2019-02-06T12:12:19.146Z,9.50
2019-02-06T12:17:24.448Z,10.93
2019-02-06T12:22:29.906Z,8.73
2019-02-06T12:27:35.252Z,10.03
2019-02-06T12:32:51.500Z,13.50
2019-02-06T12:37:47.712Z,12.63
2019-02-06T12:42:53.095Z,8.37
2019-02-06T12:47:58.577Z,10.00
2019-02-06T12:53:04.111Z,9.63
2019-02-06T12:58:09.717Z,13.40
2019-02-06T13:03:15.141Z,11.57
2019-02-06T13:08:20.522Z,10.60
2019-02-06T13:13:25.972Z,8.53
2019-02-06T13:18:31.348Z,7.73
2019-02-06T13:23:36.761Z,9.00
2019-02-06T13:28:42.163Z,7.87
2019-02-06T13:33:47.501Z,6.53
2019-02-06T13:38:53.076Z,7.77
2019-02-06T13:43:58.573Z,6.13
2019-02-06T13:49:03.880Z,8.23
2019-02-06T13:54:09.467Z,8.13
2019-02-06T13:59:14.807Z,8.37
2019-02-06T14:04:20.141Z,7.23
2019-02-06T14:09:25.843Z,9.27
2019-02-06T14:14:32.223Z,9.13
2019-02-06T14:19:37.717Z,6.87
2019-02-06T14:25:48.399Z,5.87
2019-02-06T14:31:22.513Z,7.40
2019-02-06T14:37:23.771Z,6.07
2019-02-06T14:43:02.162Z,7.53
2019-02-06T14:49:09.728Z,7.30
2019-02-06T14:54:54.165Z,7.67
2019-02-06T15:01:01.063Z,6.43
2019-02-06T15:06:48.368Z,7.70
2019-02-06T15:12:07.821Z,8.50
2019-02-06T15:18:27.255Z,12.17
2019-02-06T15:24:16.141Z,9.80
2019-02-06T15:29:58.501Z,10.10
2019-02-06T15:36:19.021Z,11.03
2019-02-06T15:42:16.561Z,8.70
2019-02-06T15:48:19.090Z,9.97
2019-02-06T15:54:28.159Z,6.83
2019-02-06T16:00:32.214Z,8.37
2019-02-06T16:06:37.082Z,8.83
2019-02-06T16:12:38.275Z,7.80
2019-02-06T16:18:48.353Z,9.80
2019-02-06T16:24:37.671Z,7.73
2019-02-06T16:30:23.753Z,8.37
2019-02-06T16:36:53.394Z,8.53
2019-02-06T16:42:55.648Z,9.50
2019-02-06T16:49:01.432Z,10.40
2019-02-06T16:55:39.835Z,7.67
2019-02-06T17:01:37.182Z,8.03
2019-02-06T17:07:26.899Z,9.97
2019-02-06T17:13:39.746Z,9.27
2019-02-06T17:19:09.483Z,8.57
2019-02-06T17:25:35.763Z,8.70
2019-02-06T17:31:33.590Z,7.77
2019-02-06T17:37:05.507Z,8.10
2019-02-06T17:42:55.609Z,10.63
2019-02-06T17:49:02.694Z,7.90
2019-02-06T17:55:06.551Z,8.60
2019-02-06T18:00:31.688Z,10.73
2019-02-06T18:05:40.166Z,8.93
2019-02-06T18:10:44.609Z,9.00
2019-02-06T18:15:50.052Z,10.07
2019-02-06T18:20:55.608Z,9.87
2019-02-06T18:26:01.272Z,10.80
2019-02-06T18:31:06.974Z,10.27
2019-02-06T18:36:12.465Z,10.27
2019-02-06T18:41:18.107Z,10.90
2019-02-06T18:46:23.717Z,9.40
2019-02-06T18:51:29.440Z,9.57
2019-02-06T18:56:34.870Z,10.80
2019-02-06T19:01:40.939Z,11.83
2019-02-06T19:06:46.656Z,11.23
2019-02-06T19:11:52.340Z,10.10
2019-02-06T19:16:57.995Z,10.97
2019-02-06T19:22:04.003Z,10.53
2019-02-06T19:27:09.595Z,8.53
2019-02-06T19:32:15.042Z,10.57
2019-02-06T19:37:20.592Z,9.77
2019-02-06T19:42:26.321Z,10.67
2019-02-06T19:47:32.048Z,9.83
2019-02-06T19:52:37.536Z,9.70
2019-02-06T19:57:43.308Z,25.13
2019-02-06T20:02:48.960Z,8.70
2019-02-06T20:07:54.701Z,10.10
2019-02-06T20:13:10.219Z,9.90
2019-02-06T20:18:07.426Z,12.40
2019-02-06T20:23:13.027Z,13.57
2019-02-06T20:28:18.603Z,11.17
2019-02-06T20:33:24.387Z,10.43
2019-02-06T20:38:29.983Z,11.60
2019-02-06T20:43:35.440Z,11.93
2019-02-06T20:48:41.044Z,12.57
2019-02-06T20:53:46.576Z,12.47
2019-02-06T20:58:51.878Z,12.93
2019-02-06T21:03:57.206Z,12.80
2019-02-06T21:09:02.551Z,12.80
2019-02-06T21:14:08.452Z,13.30
2019-02-06T21:19:13.996Z,14.90
2019-02-06T21:24:19.352Z,13.03
2019-02-06T21:29:27.948Z,16.13
2019-02-06T21:34:33.261Z,15.63
2019-02-06T21:39:38.695Z,19.70
2019-02-06T21:44:44.058Z,15.03
2019-02-06T21:49:50.287Z,17.10
2019-02-06T21:54:56.757Z,15.17
2019-02-06T22:00:02.224Z,16.53
2019-02-06T22:05:07.708Z,19.27
2019-02-06T22:10:14.005Z,19.43
2019-02-06T22:15:22.263Z,18.60
2019-02-06T22:20:27.926Z,18.03
2019-02-06T22:25:33.597Z,18.83
2019-02-06T22:30:39.334Z,17.17
2019-02-06T22:35:45.210Z,19.37
2019-02-06T22:40:50.770Z,19.07
2019-02-06T22:45:56.300Z,18.47
2019-02-06T22:51:01.875Z,18.83
2019-02-06T22:56:07.528Z,16.83
2019-02-06T23:01:38.975Z,22.93
2019-02-06T23:06:44.659Z,21.13
2019-02-06T23:11:49.987Z,17.53
2019-02-06T23:16:55.641Z,19.40
2019-02-06T23:22:00.988Z,18.17
2019-02-06T23:27:06.379Z,21.20
2019-02-06T23:32:11.706Z,16.87
2019-02-06T23:37:17.212Z,18.80
2019-02-06T23:42:23.433Z,18.13
2019-02-06T23:47:28.896Z,18.40
2019-02-06T23:52:34.908Z,16.47
2019-02-06T23:57:40.214Z,18.53
